Ban Gong Hu — BOEY — position and weather

sailwx.info

Track history (hours):
 
Tides and Currents Weather Stations Pressure Air Temp Water Temp Dewpoint Dewpoint Depression Visibility Wind Speed Wind Dir Waves Ship Positions

Ban Gong Hu

Last reported at 2015-May-17 01:21 UTC. Time now 2015-May-25 19:36 UTC.
Position N 32°42' E 134°57'.
Warning: this ship's position is 8 days out of date.

Length 229 m; draft 8.5 m.

Type: Tanker. MMSI: 412371000.

Date/timePositionNaut miles runAvg speedWind from/ knotsBaromVisibWave heightAir tempDewpointWater temp
2015-May-17 01:21N 32°42' E 134°57'26411.4
2015-May-16 02:12N 34°57' E 139°30'1012.1
2015-May-16 01:24N 35°03' E 139°39'1011.4
2015-May-16 00:33N 35°11' E 139°45'1111.0
2015-May-15 23:33N 35°22' E 139°42'9 9.4
2015-May-15 22:33N 35°30' E 139°47'1 0.5
2015-May-15 21:20N 35°31' E 139°46'0 0.0
2015-May-15 20:32N 35°31' E 139°46'0 0.0
2015-May-15 19:31N 35°31' E 139°46'0 0.0
2015-May-15 18:07N 35°31' E 139°46'0 0.0
2015-May-15 17:31N 35°31' E 139°46'0 0.0
2015-May-15 16:31N 35°31' E 139°46'0 0.0
2015-May-15 15:19N 35°31' E 139°46'0 0.0
2015-May-15 14:07N 35°31' E 139°46'0 0.0
2015-May-15 13:19N 35°31' E 139°46'0 0.0
2015-May-15 11:25N 35°31' E 139°46'0 0.0
2015-May-15 10:31N 35°31' E 139°46'0 0.0
2015-May-15 05:31N 35°31' E 139°46'0 0.0
2015-May-15 04:25N 35°31' E 139°46'0 0.5
2015-May-15 03:34N 35°31' E 139°46'3 2.8
2015-May-15 02:33N 35°28' E 139°47'0 0.0
2015-May-15 01:33N 35°28' E 139°47'0 0.4
2015-May-15 00:33N 35°28' E 139°47'1110.7
2015-May-14 23:33N 35°17' E 139°46'9 9.0
2015-May-14 22:33N 35°08' E 139°46'7 7.1
2015-May-14 21:33N 35°01' E 139°42'6 5.9
2015-May-14 20:33N 34°57' E 139°37'10 9.6
2015-May-14 19:32N 34°53' E 139°26'  
Track history (hours):
 
Tides and Currents Weather Stations Pressure Air Temp Water Temp Dewpoint Dewpoint Depression Visibility Wind Speed Wind Dir Waves Ship Positions

Ban Gong Hu

Last reported at 2015-May-17 01:21 UTC. Time now 2015-May-25 19:36 UTC.
Position N 32°42' E 134°57'.
Warning: this ship's position is 8 days out of date.

Length 229 m; draft 8.5 m.

Type: Tanker. MMSI: 412371000.

Date/timePositionNaut miles runAvg speedWind from/ knotsBaromVisibWave heightAir tempDewpointWater temp
2015-May-17 01:21N 32°42' E 134°57'26411.4
2015-May-16 02:12N 34°57' E 139°30'1012.1
2015-May-16 01:24N 35°03' E 139°39'1011.4
2015-May-16 00:33N 35°11' E 139°45'1111.0
2015-May-15 23:33N 35°22' E 139°42'9 9.4
2015-May-15 22:33N 35°30' E 139°47'1 0.5
2015-May-15 21:20N 35°31' E 139°46'0 0.0
2015-May-15 20:32N 35°31' E 139°46'0 0.0
2015-May-15 19:31N 35°31' E 139°46'0 0.0
2015-May-15 18:07N 35°31' E 139°46'0 0.0
2015-May-15 17:31N 35°31' E 139°46'0 0.0
2015-May-15 16:31N 35°31' E 139°46'0 0.0
2015-May-15 15:19N 35°31' E 139°46'0 0.0
2015-May-15 14:07N 35°31' E 139°46'0 0.0
2015-May-15 13:19N 35°31' E 139°46'0 0.0
2015-May-15 11:25N 35°31' E 139°46'0 0.0
2015-May-15 10:31N 35°31' E 139°46'0 0.0
2015-May-15 05:31N 35°31' E 139°46'0 0.0
2015-May-15 04:25N 35°31' E 139°46'0 0.5
2015-May-15 03:34N 35°31' E 139°46'3 2.8
2015-May-15 02:33N 35°28' E 139°47'0 0.0
2015-May-15 01:33N 35°28' E 139°47'0 0.4
2015-May-15 00:33N 35°28' E 139°47'1110.7
2015-May-14 23:33N 35°17' E 139°46'9 9.0
2015-May-14 22:33N 35°08' E 139°46'7 7.1
2015-May-14 21:33N 35°01' E 139°42'6 5.9
2015-May-14 20:33N 34°57' E 139°37'10 9.6
2015-May-14 19:32N 34°53' E 139°26'  

Dump ship's entire track history